createdAt,value
2019-04-05T00:01:07.693Z,12.67
2019-04-05T00:06:12.748Z,11.30
2019-04-05T00:11:17.950Z,10.43
2019-04-05T00:16:22.963Z,10.70
2019-04-05T00:21:28.009Z,10.60
2019-04-05T00:26:34.153Z,9.70
2019-04-05T00:31:39.395Z,10.60
2019-04-05T00:36:44.471Z,9.43
2019-04-05T00:41:49.695Z,9.70
2019-04-05T00:46:54.681Z,9.43
2019-04-05T00:52:00.108Z,9.40
2019-04-05T00:57:05.230Z,9.80
2019-04-05T01:02:12.755Z,9.93
2019-04-05T01:07:16.905Z,10.27
2019-04-05T01:12:23.858Z,11.47
2019-04-05T01:17:28.877Z,11.33
2019-04-05T01:22:35.215Z,11.70
2019-04-05T01:27:41.805Z,12.80
2019-04-05T01:32:47.796Z,14.37
2019-04-05T01:37:53.445Z,14.23
2019-04-05T01:42:59.242Z,15.17
2019-04-05T01:48:04.246Z,12.97
2019-04-05T01:53:10.374Z,16.03
2019-04-05T01:58:17.130Z,16.80
2019-04-05T02:03:22.221Z,15.90
2019-04-05T02:08:27.349Z,16.40
2019-04-05T02:13:32.406Z,17.53
2019-04-05T02:18:37.651Z,17.57
2019-04-05T02:23:42.676Z,17.33
2019-04-05T02:28:47.702Z,17.90
2019-04-05T02:33:53.125Z,15.70
2019-04-05T02:38:58.260Z,17.90
2019-04-05T02:44:03.712Z,16.87
2019-04-05T02:49:09.243Z,16.53
2019-04-05T02:54:15.523Z,16.07
2019-04-05T02:59:21.162Z,15.07
2019-04-05T03:04:26.687Z,15.13
2019-04-05T03:09:32.423Z,16.07
2019-04-05T03:14:39.091Z,16.60
2019-04-05T03:19:47.190Z,17.00
2019-04-05T03:24:53.664Z,17.23
2019-04-05T03:29:59.026Z,15.77
2019-04-05T03:35:04.652Z,15.20
2019-04-05T03:40:10.221Z,15.43
2019-04-05T03:45:15.787Z,16.93
2019-04-05T03:50:20.942Z,16.33
2019-04-05T03:55:26.308Z,16.37
2019-04-05T04:00:31.508Z,15.57
2019-04-05T04:05:36.682Z,15.53
2019-04-05T04:10:42.054Z,15.80
2019-04-05T04:15:47.718Z,14.77
2019-04-05T04:20:56.149Z,14.93
2019-04-05T04:26:02.125Z,15.07
2019-04-05T04:31:08.335Z,14.87
2019-04-05T04:36:15.269Z,17.10
2019-04-05T04:41:21.926Z,18.37
2019-04-05T04:46:29.508Z,17.37
2019-04-05T04:51:35.295Z,16.87
2019-04-05T04:56:40.651Z,17.53
2019-04-05T05:01:46.616Z,16.97
2019-04-05T05:06:51.961Z,16.97
2019-04-05T05:11:57.466Z,18.33
2019-04-05T05:17:03.024Z,16.93
2019-04-05T05:22:08.394Z,16.93
2019-04-05T05:27:13.998Z,13.90
2019-04-05T05:32:19.217Z,16.37
2019-04-05T05:37:24.781Z,15.03
2019-04-05T05:42:29.811Z,15.07
2019-04-05T05:47:35.171Z,14.30
2019-04-05T05:52:40.635Z,13.10
2019-04-05T05:57:46.020Z,13.37
2019-04-05T06:08:12.984Z,12.63
2019-04-05T06:13:18.188Z,13.77
2019-04-05T06:18:23.304Z,12.43
2019-04-05T06:23:34.072Z,12.27
2019-04-05T06:28:35.065Z,11.27
2019-04-05T06:33:40.106Z,12.37
2019-04-05T06:38:47.057Z,12.97
2019-04-05T06:43:58.408Z,12.17
2019-04-05T06:49:03.561Z,14.97
2019-04-05T06:54:08.614Z,14.40
2019-04-05T06:59:13.701Z,13.97
2019-04-05T07:04:18.936Z,14.33
2019-04-05T07:09:24.396Z,14.83
2019-04-05T07:14:29.472Z,13.73
2019-04-05T07:19:34.528Z,13.30
2019-04-05T07:24:40.895Z,13.67
2019-04-05T07:29:45.934Z,13.07
2019-04-05T07:34:50.973Z,13.83
2019-04-05T07:39:56.008Z,14.73
2019-04-05T07:45:02.930Z,13.43
2019-04-05T07:50:09.928Z,15.63
2019-04-05T07:55:15.968Z,15.53
2019-04-05T08:00:42.409Z,15.23
2019-04-05T08:05:48.349Z,15.43
2019-04-05T08:10:54.248Z,16.20
2019-04-05T08:16:01.758Z,15.20
2019-04-05T08:21:07.118Z,15.93
2019-04-05T08:26:14.073Z,16.10
2019-04-05T08:31:19.070Z,15.57
2019-04-05T08:36:25.942Z,15.30
2019-04-05T08:41:33.053Z,16.73
2019-04-05T08:46:38.056Z,15.03
2019-04-05T08:51:43.126Z,16.07
2019-04-05T08:56:48.332Z,16.53
2019-04-05T09:01:53.691Z,16.17
2019-04-05T09:06:59.058Z,15.80
2019-04-05T09:12:04.085Z,15.80
2019-04-05T09:17:09.163Z,15.73
2019-04-05T09:22:16.451Z,14.53
2019-04-05T09:27:22.577Z,15.73
2019-04-05T09:32:28.314Z,15.33
2019-04-05T09:37:33.447Z,14.90
2019-04-05T09:42:40.178Z,13.70
2019-04-05T09:47:45.395Z,14.03
2019-04-05T09:52:50.678Z,13.93
2019-04-05T09:57:55.734Z,12.40
2019-04-05T10:03:00.765Z,12.13
2019-04-05T10:08:07.644Z,12.47
2019-04-05T10:13:14.146Z,11.47
2019-04-05T10:18:19.194Z,12.70
2019-04-05T10:23:24.379Z,11.80
2019-04-05T10:28:29.761Z,11.77
2019-04-05T10:33:34.768Z,11.87
2019-04-05T10:38:39.919Z,10.90
2019-04-05T10:43:45.208Z,10.10
2019-04-05T10:48:50.337Z,9.87
2019-04-05T10:53:55.399Z,10.43
2019-04-05T10:59:00.656Z,9.73
2019-04-05T11:04:05.699Z,9.77
2019-04-05T11:09:10.783Z,9.10
2019-04-05T11:14:16.908Z,8.93
2019-04-05T11:19:22.428Z,8.80
2019-04-05T11:24:27.483Z,7.77
2019-04-05T11:29:32.508Z,9.73
2019-04-05T11:34:38.641Z,7.90
2019-04-05T11:39:48.273Z,8.27
2019-04-05T11:44:53.903Z,8.30
2019-04-05T11:50:01.969Z,8.77
2019-04-05T11:55:07.585Z,7.97
2019-04-05T12:00:18.908Z,7.90
2019-04-05T12:05:26.941Z,8.13
2019-04-05T12:10:32.658Z,7.17
2019-04-05T12:15:37.992Z,8.27
2019-04-05T12:20:49.697Z,8.20
2019-04-05T12:25:49.633Z,8.53
2019-04-05T12:30:54.988Z,8.23
2019-04-05T12:36:01.904Z,8.20
2019-04-05T12:41:10.659Z,7.50
2019-04-05T12:46:16.117Z,7.40
2019-04-05T12:57:27.896Z,6.80
2019-04-05T13:02:34.141Z,7.97
2019-04-05T13:07:39.386Z,7.57
2019-04-05T13:12:44.443Z,7.83
2019-04-05T13:17:49.736Z,8.17
2019-04-05T13:22:54.772Z,7.90
2019-04-05T13:27:59.798Z,7.67
2019-04-05T13:33:05.292Z,8.60
2019-04-05T13:38:12.212Z,8.10
2019-04-05T13:43:17.840Z,9.33
2019-04-05T13:48:22.915Z,9.03
2019-04-05T13:53:28.038Z,8.53
2019-04-05T13:58:33.091Z,8.67
2019-04-05T14:03:38.135Z,10.03
2019-04-05T14:08:43.811Z,10.40
2019-04-05T14:13:48.937Z,9.77
2019-04-05T14:18:55.955Z,10.10
2019-04-05T14:24:04.527Z,9.90
2019-04-05T14:29:09.167Z,10.53
2019-04-05T14:34:14.302Z,10.20
2019-04-05T14:39:19.433Z,12.07
2019-04-05T14:44:24.458Z,9.80
2019-04-05T14:49:30.747Z,11.07
2019-04-05T14:54:36.164Z,11.17
2019-04-05T14:59:41.415Z,12.10
2019-04-05T15:04:49.196Z,12.30
2019-04-05T15:09:55.563Z,13.03
2019-04-05T15:15:01.778Z,13.23
2019-04-05T15:20:07.967Z,13.57
2019-04-05T15:25:16.947Z,13.40
2019-04-05T15:30:20.357Z,15.33
2019-04-05T15:35:26.481Z,13.00
2019-04-05T15:40:33.647Z,13.30
2019-04-05T15:45:38.727Z,12.70
2019-04-05T15:50:57.668Z,12.33
2019-04-05T15:56:05.133Z,12.53
2019-04-05T16:01:11.353Z,12.53
2019-04-05T16:06:16.474Z,13.17
2019-04-05T16:11:21.862Z,13.73
2019-04-05T16:16:28.207Z,12.33
2019-04-05T16:21:33.299Z,12.83
2019-04-05T16:26:44.151Z,13.03
2019-04-05T16:31:49.216Z,12.50
2019-04-05T16:36:54.260Z,13.70
2019-04-05T16:41:59.401Z,13.50
2019-04-05T16:47:04.427Z,11.97
2019-04-05T16:52:10.378Z,11.47
2019-04-05T16:57:15.436Z,13.03
2019-04-05T17:02:20.613Z,12.87
2019-04-05T17:07:25.651Z,13.67
2019-04-05T17:12:30.907Z,11.77
2019-04-05T17:17:36.260Z,12.23
2019-04-05T17:22:41.417Z,14.00
2019-04-05T17:27:46.541Z,13.37
2019-04-05T17:32:52.554Z,12.83
2019-04-05T17:37:57.569Z,14.13
2019-04-05T17:43:03.725Z,13.87
2019-04-05T17:48:08.802Z,12.97
2019-04-05T17:53:13.862Z,14.33
2019-04-05T17:58:19.386Z,13.17
2019-04-05T18:03:24.552Z,11.70
2019-04-05T18:08:29.633Z,13.60
2019-04-05T18:13:34.669Z,13.97
2019-04-05T18:18:39.695Z,13.60
2019-04-05T18:23:44.736Z,13.77
2019-04-05T18:28:49.765Z,12.80
2019-04-05T18:33:54.835Z,14.80
2019-04-05T18:38:59.856Z,14.37
2019-04-05T18:44:05.129Z,15.20
2019-04-05T18:49:10.188Z,11.10
2019-04-05T18:54:15.232Z,14.97
2019-04-05T18:59:20.276Z,13.57
2019-04-05T19:04:26.441Z,14.77
2019-04-05T19:09:31.505Z,15.10
2019-04-05T19:14:36.662Z,14.77
2019-04-05T19:19:41.849Z,14.00
2019-04-05T19:24:47.849Z,14.07
2019-04-05T19:29:52.859Z,16.03
2019-04-05T19:50:19.541Z,16.40
2019-04-05T19:55:24.717Z,19.23
2019-04-05T20:00:30.732Z,13.97
2019-04-05T20:05:35.807Z,16.03
2019-04-05T20:10:40.835Z,15.40
2019-04-05T20:15:45.865Z,17.37
2019-04-05T20:20:50.888Z,18.97
2019-04-05T20:25:55.924Z,17.30
2019-04-05T20:31:02.341Z,16.90
2019-04-05T20:36:07.393Z,17.83
2019-04-05T20:41:12.475Z,18.57
2019-04-05T20:46:17.760Z,19.97
2019-04-05T20:51:22.795Z,19.87
2019-04-05T20:56:28.178Z,17.63
2019-04-05T21:01:33.233Z,21.93
2019-04-05T21:06:38.548Z,17.20
2019-04-05T21:11:43.576Z,17.87
2019-04-05T21:16:48.685Z,18.53
2019-04-05T21:21:53.886Z,18.73
2019-04-05T21:26:59.112Z,20.30
2019-04-05T21:32:04.136Z,24.43
2019-04-05T21:37:09.169Z,22.33
2019-04-05T21:42:16.646Z,21.97
2019-04-05T21:47:20.997Z,23.23
2019-04-05T21:52:27.776Z,23.73
2019-04-05T21:57:33.780Z,22.47
2019-04-05T22:02:38.924Z,24.13
2019-04-05T22:07:44.080Z,25.27
2019-04-05T22:12:49.136Z,23.60
2019-04-05T22:17:55.006Z,22.73
2019-04-05T22:23:00.015Z,24.20
2019-04-05T22:28:05.295Z,24.70
2019-04-05T22:33:10.473Z,22.57
2019-04-05T22:38:15.464Z,22.37
2019-04-05T22:43:20.524Z,23.90
2019-04-05T22:48:25.571Z,23.37
2019-04-05T22:53:30.658Z,17.20
2019-04-05T22:58:35.716Z,19.97
2019-04-05T23:03:40.897Z,19.90
2019-04-05T23:08:46.400Z,20.27
2019-04-05T23:13:51.559Z,20.63
2019-04-05T23:18:56.708Z,24.87
2019-04-05T23:24:02.339Z,23.70
2019-04-05T23:29:07.828Z,21.43
2019-04-05T23:34:12.859Z,23.20
2019-04-05T23:39:17.906Z,14.80
2019-04-05T23:44:22.971Z,16.00
2019-04-05T23:49:28.089Z,24.40
2019-04-05T23:54:33.275Z,24.17
2019-04-05T23:59:38.296Z,25.10
